Flight Track Log - Related Links

Times and Time Zones

All times are in EDT time to prevent confusion due to time zone crossing. See the DAL1794 flight status page for this flight to view local times or setup timezone preferences in your user account.

Time Position Orientation Groundspeed Altitude Reporting Facility
EDT Latitude Longitude Course Direction KTS MPH feet Rate Location/Type
06:39PM 39.8775 -104.6556 91° East 93 107 5,500  Level FlightAware ADS-B
06:39PM 39.8773 -104.6287 90° East 186 214 5,600 933 Climbing FlightAware ADS-B
06:39PM 39.8771 -104.6110 91° East 183 211 6,200 1,440 Climbing FlightAware ADS-B
06:40PM 39.8833 -104.6000 72° East 184 212 6,200 2,118 Level Denver TRACON
06:40PM 39.8768 -104.5923 92° East 183 211 6,800 1,474 Climbing FlightAware ADS-B
06:40PM 39.8833 -104.5333 90° East 206 237 7,600 1,135 Climbing Denver TRACON
06:42PM 39.8667 -104.2814 90° East  Level FlightAware Approximate
06:42PM 39.8833 -104.4500 90° East 275 316 8,900  Level Denver TRACON
06:43PM 39.8667 -104.1111 90° East  Level FlightAware Approximate
06:43PM 39.8833 -104.3167 90° East 330 380 10,800  Level Denver TRACON
06:44PM 39.8667 -103.9409 90° East  Level FlightAware Approximate
06:44PM 39.8833 -104.1833 90° East 383 441 12,600  Level Denver TRACON
06:45PM 39.8737 -103.7720 72° East  Level FlightAware Approximate
06:45PM 39.8806 -104.0189 91° East 405 466 14,900  Level Denver Center
06:46PM 39.8819 -103.8300 89° East 427 491 17,800 2,304 Climbing Denver Center
06:47PM 39.8894 -103.6786 86° East 422 486 19,700 1,659 Climbing Denver Center
06:48PM 39.9044 -103.5508 81° East 440 506 21,200 1,694 Climbing Denver Center
06:49PM 39.9269 -103.3542 81° East 454 522 23,200 1,548 Climbing Denver Center
06:50PM 39.9425 -103.2200 81° East 464 534 24,400 1,415 Climbing Denver Center
06:51PM 39.9686 -102.9797 82° East 479 551 26,100 1,306 Climbing Denver Center
06:52PM 39.9942 -102.8053 79° East 485 558 27,100 1,113 Climbing Denver Center
06:53PM 40.0214 -102.6294 79° East 498 573 28,400 1,258 Climbing Denver Center
06:54PM 40.0497 -102.4300 79° East 498 573 29,700 1,113 Climbing Denver Center
06:55PM 40.0736 -102.2592 80° East 499 574 30,700 871 Climbing Denver Center
06:56PM 40.0989 -102.0867 79° East 503 579 31,500 1,065 Climbing Denver Center
06:57PM 40.1269 -101.8869 80° East 503 579 32,900 1,171 Climbing Denver Center
06:58PM 40.1506 -101.7186 80° East 497 572 33,900 889 Climbing Denver Center
07:00PM 40.1761 -101.5211 80° East 496 571 34,900 838 Climbing Denver Center
07:01PM 40.2067 -101.2956 80° East 496 571 35,800 823 Climbing Denver Center
07:02PM 40.2258 -101.1561 80° East 495 570 36,600 529 Climbing Denver Center
07:03PM 40.2506 -100.9639 80° East 483 556 37,000 176 Climbing Denver Center
07:04PM 40.2758 -100.7722 80° East 483 556 37,000  Level Denver Center
07:05PM 40.3033 -100.5575 80° East 475 547 37,000  Level Denver Center
07:06PM 40.3242 -100.3950 80° East 475 547 37,000  Level Denver Center
07:07PM 40.3475 -100.2025 81° East 480 552 37,000 49 Level Denver Center
07:08PM 40.3650 -100.0650 80° East 480 552 37,100  Climbing Denver Center
07:08PM 40.3797 -99.9503 80° East 481 554 37,000 -97 Descending Minneapolis Center
07:09PM 40.3914 -99.8453 82° East 483 556 37,000  Level Denver Center
07:10PM 40.4117 -99.6708 81° East 483 556 37,000  Level Denver Center
07:11PM 40.4328 -99.4953 81° East 486 559 37,000  Level Denver Center
07:12PM 40.4525 -99.3192 82° East 488 562 37,000  Level Denver Center
07:13PM 40.4731 -99.1447 81° East 487 560 37,000  Level Denver Center
07:14PM 40.4858 -99.0408 81° East 485 558 37,000  Level Minneapolis Center
07:15PM 40.5058 -98.8644 81° East 486 559 37,000  Level Minneapolis Center
07:16PM 40.5247 -98.6883 82° East 488 562 37,000  Level Minneapolis Center
07:17PM 40.5472 -98.4728 82° East 494 568 37,000 48 Level Minneapolis Center
07:18PM 40.5669 -98.2936 82° East 495 570 37,100  Climbing Minneapolis Center
07:19PM 40.5861 -98.1147 82° East 495 570 37,000 -48 Descending Minneapolis Center
07:20PM 40.6050 -97.9367 82° East 496 571 37,000  Level Minneapolis Center
07:21PM 40.6236 -97.7572 82° East 496 571 37,000  Level Minneapolis Center
07:22PM 40.6447 -97.5397 83° East 496 571 37,000  Level Minneapolis Center
07:23PM 40.6631 -97.3589 82° East 497 572 37,000  Level Minneapolis Center
07:24PM 40.6800 -97.1806 83° East 497 572 37,000  Level Minneapolis Center
07:25PM 40.6967 -97.0006 83° East 497 572 37,000  Level Minneapolis Center
07:26PM 40.7139 -96.8183 83° East 497 572 37,000  Level Minneapolis Center
07:27PM 40.7306 -96.6392 83° East 497 572 37,000  Level Minneapolis Center
07:28PM 40.7506 -96.4231 83° East 497 572 37,000  Level Minneapolis Center
07:29PM 40.7661 -96.2422 83° East 498 573 37,000  Level Minneapolis Center
07:30PM 40.7825 -96.0628 83° East 498 573 37,000  Level Minneapolis Center
07:31PM 40.7983 -95.8819 83° East 498 573 37,000  Level Minneapolis Center
07:32PM 40.8128 -95.7022 84° East 498 573 37,000  Level Minneapolis Center
07:33PM 40.8283 -95.5200 84° East 498 573 37,000  Level Minneapolis Center
07:34PM 40.8464 -95.3011 84° East 500 575 37,000  Level Minneapolis Center
07:35PM 40.8614 -95.1183 84° East 500 575 37,000  Level Minneapolis Center
07:36PM 40.8750 -94.9350 84° East 501 577 37,000  Level Minneapolis Center
07:37PM 40.8883 -94.7511 84° East 501 577 37,000  Level Minneapolis Center
07:38PM 40.9031 -94.5675 84° East 501 577 37,000  Level Minneapolis Center
07:39PM 40.9161 -94.3492 85° East 501 577 37,000  Level Minneapolis Center
07:41PM 40.9314 -94.1631 84° East 505 581 37,000  Level Minneapolis Center
07:42PM 40.9433 -93.9814 85° East 504 580 37,000  Level Minneapolis Center
07:43PM 40.9567 -93.7981 84° East 504 580 37,000  Level Minneapolis Center
07:44PM 40.9681 -93.6158 85° East 503 579 37,000  Level Minneapolis Center
07:45PM 40.9803 -93.4339 85° East 502 578 37,000  Level Minneapolis Center
07:45PM 40.9858 -93.3228 86° East 501 577 37,000  Level Chicago Center
07:46PM 41.0006 -93.1011 85° East 503 579 37,000  Level Chicago Center
07:47PM 41.0122 -92.9161 85° East 504 580 37,000  Level Chicago Center
07:48PM 41.0231 -92.7306 86° East 505 581 37,000  Level Chicago Center
07:49PM 41.0319 -92.5450 86° East 505 581 37,000  Level Chicago Center
07:50PM 41.0436 -92.3589 85° East 505 581 37,000  Level Chicago Center
07:51PM 41.0547 -92.1358 86° East 507 583 37,000  Level Chicago Center
07:53PM 41.0653 -91.9514 86° East 506 582 37,000  Level Chicago Center
07:54PM 41.0742 -91.7686 86° East 504 580 37,000  Level Chicago Center
07:55PM 41.0814 -91.5947 87° East 503 579 37,000  Level Chicago Center
07:56PM 41.0911 -91.3725 87° East 503 579 37,000  Level Chicago Center
07:57PM 41.1014 -91.1886 86° East 503 579 37,000  Level Chicago Center
07:58PM 41.1081 -91.0028 87° East 503 579 37,000  Level Chicago Center
07:59PM 41.1161 -90.8178 87° East 503 579 37,000  Level Chicago Center
08:00PM 41.1239 -90.6306 87° East 503 579 37,000  Level Chicago Center
08:01PM 41.1306 -90.4456 87° East 503 579 37,000  Level Chicago Center
08:02PM 41.1383 -90.2592 87° East 503 579 37,000  Level Chicago Center
08:03PM 41.1461 -90.0381 87° East 500 575 37,000  Level Chicago Center
08:04PM 41.1522 -89.8486 87° East 505 581 37,000  Level Chicago Center
08:05PM 41.1578 -89.6603 88° East 506 582 37,000  Level Chicago Center
08:06PM 41.1628 -89.4706 88° East 509 586 37,000  Level Chicago Center
08:07PM 41.1642 -89.2817 89° East 509 586 37,000  Level Chicago Center
08:08PM 41.1656 -89.0975 89° East 505 581 37,000  Level Chicago Center
08:09PM 41.1661 -88.8731 90° East 505 581 37,000  Level Chicago Center
08:10PM 41.1681 -88.6864 89° East 507 583 37,000  Level Chicago Center
08:11PM 41.1689 -88.5025 90° East 505 581 37,000  Level Chicago Center
08:12PM 41.1708 -88.3178 89° East 505 581 37,000  Level Chicago Center
08:13PM 41.1708 -88.1336 90° East 506 582 37,000  Level Chicago Center
08:14PM 41.1703 -87.9139 90° East 506 582 37,000  Level Chicago Center
08:15PM 41.1700 -87.7289 90° East 507 583 37,000  Level Chicago Center
08:16PM 41.1706 -87.5431 90° East 507 583 37,000  Level Chicago Center
08:17PM 41.1675 -87.3553 91° East 510 587 37,000  Level Chicago Center
08:18PM 41.1664 -87.1683 90° East 509 586 37,000  Level Chicago Center
08:19PM 41.1653 -86.9392 90° East 516 594 37,000  Level Chicago Center
08:20PM 41.1631 -86.7489 91° East 518 596 37,000  Level Chicago Center
08:21PM 41.1572 -86.5461 92° East 520 598 37,000  Level Chicago Center
08:23PM 41.1311 -86.3561 100° East 522 601 37,000  Level Chicago Center
08:24PM 41.1194 -86.1644 95° East 525 604 37,000  Level Chicago Center
08:25PM 41.1089 -85.9725 94° East 525 604 37,000  Level Chicago Center
08:26PM 41.0978 -85.7808 94° East 524 603 37,000  Level Chicago Center
08:27PM 41.0836 -85.5542 95° East 523 602 37,000  Level Chicago Center
08:28PM 41.0731 -85.3639 94° East 521 600 37,000  Level Chicago Center
08:29PM 41.0608 -85.1728 95° East 527 606 37,000  Level Chicago Center
08:30PM 41.0486 -84.9867 95° East 519 597 37,000  Level Chicago Center
08:31PM 41.0375 -84.8022 95° East 512 589 37,000  Level Chicago Center
08:32PM 41.0242 -84.6208 96° East 508 585 37,000  Level Cleveland Center
08:33PM 41.0144 -84.4361 94° East 507 583 37,000  Level Cleveland Center
08:34PM 41.0236 -84.2525 86° East 506 582 37,000  Level Cleveland Center
08:35PM 41.0350 -84.0667 85° East 506 582 37,000  Level Cleveland Center
08:36PM 41.0469 -83.8556 86° East 509 586 37,000  Level Cleveland Center
08:37PM 41.0561 -83.6667 86° East 512 589 37,000  Level Cleveland Center
08:38PM 41.0664 -83.4714 86° East 526 605 37,000 48 Level Cleveland Center
08:39PM 41.1186 -83.2606 72° East 525 604 37,100 48 Climbing Cleveland Center
08:40PM 41.1928 -83.0947 59° Northeast 514 592 37,100 -48 Level Cleveland Center
08:41PM 41.2650 -82.9308 60° Northeast 512 589 37,000 -48 Descending Cleveland Center
08:42PM 41.3378 -82.7669 59° Northeast 511 588 37,000  Level Cleveland Center
08:43PM 41.4111 -82.6064 59° Northeast 508 585 37,000  Level Cleveland Center
08:44PM 41.4836 -82.4450 59° Northeast 502 578 37,000  Level Cleveland Center
08:45PM 41.5581 -82.2864 58° Northeast 502 578 37,000  Level Cleveland Center
08:46PM 41.5839 -82.0992 79° East 515 593 37,000  Level Cleveland Center
08:47PM 41.5258 -81.9267 114° Southeast 511 588 37,000  Level Cleveland Center
08:48PM 41.4111 -81.7786 136° Southeast 491 565 37,000  Level Cleveland Center
08:49PM 41.3200 -81.6547 134° Southeast 487 560 37,000  Level Cleveland Center
08:50PM 41.2933 -81.4775 101° East 490 564 37,000  Level Cleveland Center
08:51PM 41.2914 -81.2797 91° East 490 564 37,000 49 Level Cleveland Center
08:52PM 41.2889 -81.0961 91° East 493 567 37,100  Climbing Cleveland Center
08:53PM 41.2864 -80.9125 91° East 494 568 37,000 -48 Descending Cleveland Center
08:54PM 41.2842 -80.7286 91° East 493 567 37,000  Level Cleveland Center
08:55PM 41.2808 -80.5483 91° East 489 563 37,000  Level Cleveland Center
08:56PM 41.2775 -80.3642 91° East 494 568 37,000  Level Cleveland Center
08:57PM 41.2731 -80.1597 92° East 493 567 37,000  Level Cleveland Center
08:58PM 41.2697 -79.9731 91° East 500 575 37,000  Level Cleveland Center
09:00PM 41.2658 -79.7758 91° East 499 574 37,000  Level Cleveland Center
09:01PM 41.2611 -79.6011 92° East 500 575 37,000  Level Cleveland Center
09:02PM 41.2575 -79.4161 91° East 499 574 37,000  Level Cleveland Center
09:03PM 41.2508 -79.2269 93° East 500 575 37,000  Level Cleveland Center
09:04PM 41.2456 -79.0419 92° East 500 575 37,000 -341 Level Cleveland Center
09:05PM 41.2400 -78.8489 92° East 509 586 36,300 -823 Descending Cleveland Center
09:06PM 41.2336 -78.6619 93° East 506 582 35,300 -976 Descending Cleveland Center
09:07PM 41.2281 -78.4775 92° East 501 577 34,300 -1,024 Descending Cleveland Center
09:08PM 41.2186 -78.2875 94° East 509 586 33,200 -629 Descending Cleveland Center
09:09PM 41.2061 -78.0647 94° East 505 581 33,000 -98 Descending Cleveland Center
09:10PM 41.1822 -77.8822 100° East 506 582 33,000 -293 Level Cleveland Center
09:11PM 41.1603 -77.7031 99° East 498 573 32,400 -726 Descending Cleveland Center
09:12PM 41.1367 -77.5225 100° East 499 574 31,500 -878 Descending Cleveland Center
09:13PM 41.1139 -77.3408 99° East 499 574 30,600 -913 Descending Cleveland Center
09:13PM 41.0992 -77.2444 101° East 489 563 30,100 -989 Descending New York Center
09:14PM 41.0756 -77.0606 100° East 494 568 29,100 -1,250 Descending New York Center
09:15PM 41.0500 -76.8739 100° East 499 574 27,600 -1,850 Descending New York Center
09:16PM 41.0253 -76.7011 101° East 492 566 25,400 -2,300 Descending New York Center
09:17PM 40.9917 -76.5386 105° East 473 544 23,000 -2,400 Descending New York Center
09:18PM 40.9533 -76.3842 108° East 454 522 20,600 -2,450 Descending New York Center
09:19PM 40.9153 -76.2189 107° East 436 502 18,100 -2,150 Descending New York Center
09:20PM 40.8803 -76.0708 107° East 425 489 16,300 -1,550 Descending New York Center
09:21PM 40.8464 -75.9419 109° East 417 480 15,000 -1,350 Descending New York Center
09:22PM 40.8147 -75.8025 107° East 411 473 13,600 -1,000 Descending New York Center
09:23PM 40.7772 -75.6544 108° East 396 456 13,000 -300 Descending New York Center
09:24PM 40.7453 -75.5233 108° East 383 441 13,000 -50 Level New York Center
09:25PM 40.7150 -75.3897 107° East 383 441 12,900 -400 Descending New York Center
09:26PM 40.6919 -75.2842 106° East 383 441 12,200 -1,000 Descending New York Center
09:27PM 40.6539 -75.1342 108° East 370 426 10,900 -1,050 Descending New York Center
09:28PM 40.5906 -75.0397 131° Southeast 347 399 10,100 -450 Descending New York Center
09:29PM 40.5483 -74.9417 120° Southeast 342 394 10,000 -50 Descending New York Center
09:30PM 40.5111 -74.8136 111° Southeast 336 387 10,000 -150 Level New York Center
09:31PM 40.4772 -74.7108 113° Southeast 320 368 9,700 -500 Descending New York Center
09:32PM 40.4453 -74.6025 111° Southeast 314 361 9,000 -700 Descending New York Center
09:33PM 40.4019 -74.5267 127° Southeast 290 334 8,300 -500 Descending New York Center
09:34PM 40.3625 -74.4564 126° Southeast 260 299 8,000 -150 Descending New York Center
09:35PM 40.3247 -74.3917 127° Southeast 246 283 8,000 -400 Level New York Center
09:36PM 40.3297 -74.3022 86° East 233 268 7,200 -500 Descending New York Center
09:37PM 40.3833 -74.2503 36° Northeast 232 267 7,000 -100 Descending New York Center
09:38PM 40.4433 -74.1908 37° Northeast 242 278 7,000  Level New York Center
09:39PM 40.4906 -74.1467 35° Northeast 237 273 7,000 -550 Level New York Center
09:40PM 40.5419 -74.0947 38° Northeast 227 261 5,900 -1,100 Descending New York Center
09:41PM 40.5956 -74.0425 36° Northeast 227 261 4,800 -1,300 Descending New York Center
09:42PM 40.6383 -74.0036 35° Northeast 217 250 3,300 -1,150 Descending New York Center
09:43PM 40.6875 -73.9539 37° Northeast 204 235 2,500 -671 Descending New York Center
09:45PM 40.7333 -73.8833 49° Northeast 187 215 1,700 -708 Descending New York TRACON
09:46PM 40.7500 -73.8333 66° East 145 167 800 -885 Descending New York TRACON

Login

Don't have an account? Register now (free) for customized features, flight alerts, and more!